createdAt,value
2023-04-26T00:01:44.908Z,76.08
2023-04-26T00:06:49.654Z,76.01
2023-04-26T00:11:52.471Z,76.33
2023-04-26T00:16:55.263Z,75.92
2023-04-26T00:21:57.951Z,76.22
2023-04-26T00:27:01.599Z,76.35
2023-04-26T00:32:04.422Z,75.90
2023-04-26T00:37:07.311Z,76.00
2023-04-26T00:42:09.967Z,76.03
2023-04-26T00:47:12.644Z,76.60
2023-04-26T00:52:15.503Z,76.21
2023-04-26T00:57:18.173Z,76.54
2023-04-26T01:02:21.040Z,76.41
2023-04-26T01:07:24.351Z,76.56
2023-04-26T01:12:27.947Z,76.83
2023-04-26T01:17:31.169Z,76.70
2023-04-26T01:22:34.853Z,76.35
2023-04-26T01:27:37.711Z,76.53
2023-04-26T01:32:40.268Z,75.81
2023-04-26T01:37:42.809Z,75.87
2023-04-26T01:42:45.384Z,76.50
2023-04-26T01:47:48.002Z,76.16
2023-04-26T01:52:50.605Z,75.70
2023-04-26T01:57:54.730Z,75.45
2023-04-26T02:02:57.659Z,75.69
2023-04-26T02:08:00.288Z,75.34
2023-04-26T02:13:03.064Z,74.87
2023-04-26T02:18:05.965Z,74.86
2023-04-26T02:23:08.535Z,74.99
2023-04-26T02:28:11.150Z,74.98
2023-04-26T02:33:13.692Z,75.12
2023-04-26T02:38:16.534Z,75.75
2023-04-26T02:43:19.250Z,75.75
2023-04-26T02:48:21.786Z,75.85
2023-04-26T02:53:24.461Z,75.54
2023-04-26T02:58:27.265Z,75.47
2023-04-26T03:03:31.278Z,75.74
2023-04-26T03:08:35.567Z,76.06
2023-04-26T03:13:38.459Z,75.88
2023-04-26T03:18:41.574Z,75.89
2023-04-26T03:23:45.237Z,75.49
2023-04-26T03:28:51.229Z,75.66
2023-04-26T03:33:54.005Z,75.26
2023-04-26T03:38:56.984Z,75.67
2023-04-26T03:44:00.434Z,75.71
2023-04-26T03:49:03.126Z,75.87
2023-04-26T03:54:06.432Z,74.79
2023-04-26T03:59:10.438Z,74.64
2023-04-26T04:04:14.407Z,74.52
2023-04-26T04:09:17.947Z,73.63
2023-04-26T04:14:20.686Z,73.37
2023-04-26T04:19:23.429Z,73.18
2023-04-26T04:24:26.514Z,72.82
2023-04-26T04:29:29.420Z,73.36
2023-04-26T04:34:36.228Z,72.85
2023-04-26T04:39:39.852Z,72.55
2023-04-26T04:44:43.177Z,71.73
2023-04-26T04:49:46.082Z,71.76
2023-04-26T04:54:49.192Z,71.10
2023-04-26T04:59:52.009Z,70.38
2023-04-26T05:04:55.722Z,69.70
2023-04-26T05:09:58.849Z,68.78
2023-04-26T05:15:01.655Z,68.32
2023-04-26T05:20:08.294Z,67.88
2023-04-26T05:25:10.935Z,67.52
2023-04-26T05:30:14.588Z,66.82
2023-04-26T05:35:37.800Z,66.90
2023-04-26T05:40:40.655Z,66.87
2023-04-26T05:45:53.399Z,66.80
2023-04-26T05:50:56.134Z,66.24
2023-04-26T05:55:58.751Z,66.53
2023-04-26T06:01:01.521Z,66.09
2023-04-26T06:06:04.638Z,66.64
2023-04-26T06:11:08.003Z,66.70
2023-04-26T06:16:10.879Z,66.18
2023-04-26T06:21:13.886Z,66.26
2023-04-26T06:26:19.036Z,65.79
2023-04-26T06:31:24.309Z,64.76
2023-04-26T06:36:31.982Z,65.00
2023-04-26T06:41:38.011Z,64.84
2023-04-26T06:46:41.692Z,63.97
2023-04-26T06:51:44.985Z,63.71
2023-04-26T06:56:50.516Z,62.73
2023-04-26T07:01:57.060Z,62.93
2023-04-26T07:06:59.935Z,62.21
2023-04-26T07:12:03.488Z,62.31
2023-04-26T07:17:39.937Z,61.22
2023-04-26T07:22:43.173Z,60.81
2023-04-26T07:27:47.058Z,60.47
2023-04-26T07:32:49.929Z,60.13
2023-04-26T07:37:52.528Z,60.66
2023-04-26T07:42:58.680Z,59.26
2023-04-26T07:48:04.260Z,58.95
2023-04-26T07:53:07.244Z,58.54
2023-04-26T07:58:14.588Z,58.78
2023-04-26T08:03:19.141Z,58.63
2023-04-26T08:08:24.823Z,58.07
2023-04-26T08:13:30.259Z,58.20
2023-04-26T08:18:35.823Z,58.03
2023-04-26T08:23:40.298Z,57.28
2023-04-26T08:28:42.852Z,57.45
2023-04-26T08:33:45.477Z,57.18
2023-04-26T08:38:48.098Z,56.26
2023-04-26T08:43:53.200Z,55.86
2023-04-26T08:49:13.822Z,55.18
2023-04-26T08:54:18.350Z,54.66
2023-04-26T08:59:21.732Z,54.71
2023-04-26T09:11:18.590Z,52.29
2023-04-26T09:16:34.645Z,52.37
2023-04-26T09:21:44.931Z,50.93
2023-04-26T09:27:04.757Z,49.68
2023-04-26T09:32:08.596Z,49.61
2023-04-26T09:37:14.059Z,49.62
2023-04-26T09:42:19.221Z,49.77
2023-04-26T09:47:22.330Z,48.66
2023-04-26T09:52:24.951Z,47.54
2023-04-26T09:57:27.632Z,47.02
2023-04-26T10:02:30.581Z,46.29
2023-04-26T10:07:34.395Z,46.12
2023-04-26T10:12:37.582Z,45.40
2023-04-26T10:17:40.539Z,44.97
2023-04-26T10:22:46.845Z,44.37
2023-04-26T10:27:50.276Z,44.40
2023-04-26T10:48:31.616Z,39.54
2023-04-26T11:04:53.759Z,34.56
2023-04-26T11:09:56.368Z,33.52
2023-04-26T11:15:01.176Z,31.77
2023-04-26T11:20:10.436Z,30.30
2023-04-26T11:25:15.417Z,29.17
2023-04-26T11:30:20.116Z,30.84
2023-04-26T11:35:23.703Z,32.53
2023-04-26T11:40:29.151Z,31.80
2023-04-26T11:45:33.573Z,31.28
2023-04-26T11:50:38.656Z,32.41
2023-04-26T11:55:41.975Z,32.82
2023-04-26T12:01:02.684Z,33.35
2023-04-26T12:06:06.341Z,32.82
2023-04-26T12:11:09.062Z,32.96
2023-04-26T12:16:25.532Z,32.94
2023-04-26T12:21:30.825Z,32.59
2023-04-26T12:26:45.129Z,32.83
2023-04-26T12:31:47.879Z,32.66
2023-04-26T12:36:50.613Z,33.43
2023-04-26T12:41:53.432Z,32.63
2023-04-26T12:46:56.030Z,31.75
2023-04-26T12:51:58.558Z,32.00
2023-04-26T12:57:02.135Z,31.61
2023-04-26T13:02:04.693Z,30.70
2023-04-26T13:07:08.284Z,31.14
2023-04-26T13:12:10.885Z,31.96
2023-04-26T13:17:13.234Z,33.27
2023-04-26T13:22:16.236Z,34.11
2023-04-26T13:27:18.820Z,33.83
2023-04-26T13:32:22.093Z,31.18
2023-04-26T13:37:24.628Z,31.58
2023-04-26T13:42:27.582Z,33.08
2023-04-26T13:47:30.080Z,34.25
2023-04-26T13:52:32.729Z,33.02
2023-04-26T13:57:35.084Z,31.30
2023-04-26T14:02:38.079Z,31.04
2023-04-26T14:07:41.753Z,32.72
2023-04-26T14:12:44.390Z,32.53
2023-04-26T14:17:47.113Z,30.95
2023-04-26T14:22:50.585Z,31.61
2023-04-26T14:27:55.164Z,32.71
2023-04-26T14:32:57.890Z,33.24
2023-04-26T14:38:00.733Z,34.68
2023-04-26T14:43:03.344Z,35.27
2023-04-26T14:48:06.396Z,35.09
2023-04-26T14:53:09.977Z,36.64
2023-04-26T14:58:12.535Z,37.16
2023-04-26T15:03:15.421Z,37.29
2023-04-26T15:08:18.360Z,36.46
2023-04-26T15:13:21.280Z,36.94
2023-04-26T15:18:24.083Z,36.47
2023-04-26T15:23:27.305Z,36.72
2023-04-26T15:28:29.943Z,37.44
2023-04-26T15:33:32.660Z,37.43
2023-04-26T15:38:35.388Z,37.70
2023-04-26T15:43:37.864Z,38.05
2023-04-26T15:48:40.542Z,38.96
2023-04-26T15:53:44.217Z,39.50
2023-04-26T15:58:47.786Z,40.25
2023-04-26T16:03:50.920Z,40.85
2023-04-26T16:08:53.889Z,41.94
2023-04-26T16:13:56.970Z,42.74
2023-04-26T16:18:59.513Z,43.32
2023-04-26T16:24:02.539Z,44.40
2023-04-26T16:29:05.239Z,45.68
2023-04-26T16:34:07.948Z,45.91
2023-04-26T16:39:14.965Z,46.14
2023-04-26T16:44:18.593Z,46.63
2023-04-26T16:49:21.208Z,46.98
2023-04-26T16:54:23.797Z,47.61
2023-04-26T16:59:27.632Z,47.93
2023-04-26T17:04:31.353Z,48.33
2023-04-26T17:09:34.896Z,48.41
2023-04-26T17:14:38.157Z,48.63
2023-04-26T17:19:40.745Z,48.08
2023-04-26T17:24:43.550Z,48.20
2023-04-26T17:29:46.612Z,48.41
2023-04-26T17:34:49.212Z,48.28
2023-04-26T17:39:52.291Z,48.32
2023-04-26T17:44:56.230Z,48.69
2023-04-26T17:49:59.059Z,49.03
2023-04-26T17:55:01.762Z,50.21
2023-04-26T18:00:09.503Z,50.35
2023-04-26T18:05:24.655Z,50.71
2023-04-26T18:10:27.211Z,50.75
2023-04-26T18:15:30.340Z,51.02
2023-04-26T18:20:34.240Z,51.80
2023-04-26T18:25:37.214Z,51.27
2023-04-26T18:30:39.772Z,51.78
2023-04-26T18:35:42.419Z,51.00
2023-04-26T18:40:45.928Z,50.23
2023-04-26T18:45:49.356Z,49.58
2023-04-26T18:50:54.423Z,48.98
2023-04-26T18:55:57.266Z,49.50
2023-04-26T19:00:59.901Z,50.91
2023-04-26T19:06:08.073Z,51.61
2023-04-26T19:11:12.426Z,52.20
2023-04-26T19:16:16.153Z,52.35
2023-04-26T19:21:18.795Z,52.72
2023-04-26T19:26:21.595Z,52.57
2023-04-26T19:31:25.248Z,51.83
2023-04-26T19:36:28.851Z,51.71
2023-04-26T19:41:32.342Z,51.62
2023-04-26T19:46:34.923Z,52.00
2023-04-26T19:51:37.715Z,52.78
2023-04-26T19:56:40.305Z,53.99
2023-04-26T20:01:42.857Z,54.53
2023-04-26T20:06:45.607Z,54.76
2023-04-26T20:11:49.835Z,55.76
2023-04-26T20:16:52.543Z,57.08
2023-04-26T20:21:56.455Z,57.30
2023-04-26T20:26:58.881Z,58.37
2023-04-26T20:32:01.454Z,59.51
2023-04-26T20:37:04.116Z,59.21
2023-04-26T20:42:06.700Z,59.24
2023-04-26T20:47:09.487Z,59.25
2023-04-26T20:52:12.911Z,59.17
2023-04-26T20:57:16.209Z,59.68
2023-04-26T21:02:19.048Z,60.31
2023-04-26T21:07:21.806Z,60.54
2023-04-26T21:12:24.896Z,60.07
2023-04-26T21:17:27.514Z,59.44
2023-04-26T21:22:30.337Z,58.89
2023-04-26T21:27:33.052Z,58.88
2023-04-26T21:32:35.840Z,58.43
2023-04-26T21:37:38.591Z,58.24
2023-04-26T21:42:44.724Z,58.42
2023-04-26T21:47:54.157Z,58.43
2023-04-26T21:52:56.778Z,58.51
2023-04-26T21:57:59.447Z,59.18
2023-04-26T22:03:02.113Z,60.55
2023-04-26T22:08:04.988Z,61.17
2023-04-26T22:13:07.628Z,63.85
2023-04-26T22:18:10.402Z,64.15
2023-04-26T22:23:12.961Z,63.77
2023-04-26T22:28:16.578Z,64.36
2023-04-26T22:33:19.131Z,64.75
2023-04-26T22:38:21.901Z,64.60
2023-04-26T22:43:24.506Z,65.59
2023-04-26T22:48:27.384Z,65.99
2023-04-26T22:53:30.434Z,65.58
2023-04-26T22:58:33.002Z,65.27
2023-04-26T23:03:37.060Z,65.59
2023-04-26T23:08:39.811Z,65.54
2023-04-26T23:13:42.470Z,65.71
2023-04-26T23:18:46.625Z,66.16
2023-04-26T23:23:49.156Z,66.85
2023-04-26T23:28:51.972Z,67.96
2023-04-26T23:33:54.522Z,67.62
2023-04-26T23:38:57.148Z,66.83
2023-04-26T23:43:59.780Z,66.87
2023-04-26T23:49:02.582Z,67.47
2023-04-26T23:54:05.330Z,67.93
2023-04-26T23:59:07.993Z,68.53
